createdAt,value
2019-04-11T00:02:22.654Z,4.60
2019-04-11T00:04:52.515Z,4.47
2019-04-11T00:07:21.113Z,4.87
2019-04-11T00:09:49.665Z,3.62
2019-04-11T00:12:18.708Z,4.30
2019-04-11T00:14:48.384Z,4.22
2019-04-11T00:17:18.051Z,5.20
2019-04-11T00:19:47.496Z,4.92
2019-04-11T00:22:17.298Z,4.30
2019-04-11T00:24:47.131Z,4.35
2019-04-11T00:27:17.008Z,4.12
2019-04-11T00:29:46.886Z,4.42
2019-04-11T00:32:15.664Z,4.90
2019-04-11T00:34:44.887Z,5.35
2019-04-11T00:37:13.716Z,4.87
2019-04-11T00:39:42.251Z,5.47
2019-04-11T00:42:10.846Z,5.05
2019-04-11T00:44:39.403Z,6.10
2019-04-11T00:47:08.923Z,5.50
2019-04-11T00:49:38.561Z,5.00
2019-04-11T00:52:08.475Z,5.47
2019-04-11T00:54:37.215Z,5.37
2019-04-11T00:57:06.564Z,4.95
2019-04-11T00:59:35.250Z,5.80
2019-04-11T01:02:05.089Z,6.15
2019-04-11T01:04:34.871Z,5.35
2019-04-11T01:07:04.691Z,6.22
2019-04-11T01:09:33.286Z,5.37
2019-04-11T01:12:02.610Z,5.65
2019-04-11T01:14:32.029Z,5.90
2019-04-11T01:17:01.098Z,6.15
2019-04-11T01:19:30.967Z,5.62
2019-04-11T01:21:59.634Z,5.12
2019-04-11T01:24:28.251Z,5.80
2019-04-11T01:26:57.356Z,5.60
2019-04-11T01:29:27.221Z,5.45
2019-04-11T01:31:58.111Z,5.50
2019-04-11T01:34:26.766Z,5.55
2019-04-11T01:36:55.527Z,5.60
2019-04-11T01:39:43.299Z,5.40
2019-04-11T01:42:13.159Z,5.47
2019-04-11T01:44:42.940Z,4.70
2019-04-11T01:47:13.354Z,4.70
2019-04-11T01:49:41.910Z,5.30
2019-04-11T01:52:10.458Z,4.55
2019-04-11T01:54:39.598Z,4.70
2019-04-11T01:57:08.271Z,5.08
2019-04-11T01:59:37.531Z,4.37
2019-04-11T02:02:23.664Z,5.00
2019-04-11T02:04:56.556Z,4.53
2019-04-11T02:07:25.165Z,5.10
2019-04-11T02:09:54.739Z,4.85
2019-04-11T02:12:23.449Z,4.72
2019-04-11T02:14:52.218Z,4.65
2019-04-11T02:17:20.754Z,4.73
2019-04-11T02:19:50.249Z,4.08
2019-04-11T02:22:36.839Z,4.08
2019-04-11T02:25:08.368Z,4.12
2019-04-11T02:27:38.568Z,5.00
2019-04-11T02:30:08.816Z,4.75
2019-04-11T02:32:38.184Z,3.83
2019-04-11T02:35:08.290Z,4.15
2019-04-11T02:37:37.942Z,4.45
2019-04-11T02:40:07.593Z,3.40
2019-04-11T02:42:36.691Z,4.33
2019-04-11T02:45:22.537Z,3.25
2019-04-11T02:47:39.578Z,4.17
2019-04-11T02:50:08.175Z,4.37
2019-04-11T02:52:39.953Z,5.17
2019-04-11T02:55:10.717Z,6.08
2019-04-11T02:57:40.741Z,5.83
2019-04-11T03:00:11.079Z,4.90
2019-04-11T03:02:42.399Z,5.50
2019-04-11T03:05:12.047Z,5.08
2019-04-11T03:07:42.300Z,6.05
2019-04-11T03:10:13.788Z,5.95
2019-04-11T03:12:43.540Z,4.40
2019-04-11T03:15:27.485Z,4.90
2019-04-11T03:17:44.626Z,5.87
2019-04-11T03:20:23.089Z,6.28
2019-04-11T03:22:45.370Z,6.15
2019-04-11T03:25:15.665Z,6.40
2019-04-11T03:27:45.273Z,6.45
2019-04-11T03:30:21.014Z,5.10
2019-04-11T03:33:47.096Z,6.22
2019-04-11T03:36:01.235Z,6.37
2019-04-11T03:38:04.185Z,5.65
2019-04-11T03:40:36.873Z,5.67
2019-04-11T03:43:04.131Z,5.25
2019-04-11T03:45:41.656Z,5.65
2019-04-11T03:48:06.134Z,4.62
2019-04-11T03:50:23.357Z,5.20
2019-04-11T03:52:51.590Z,5.10
2019-04-11T03:55:21.469Z,4.67
2019-04-11T03:57:51.822Z,6.58
2019-04-11T04:00:21.632Z,7.12
2019-04-11T04:02:52.455Z,5.80
2019-04-11T04:05:21.671Z,5.78
2019-04-11T04:07:50.494Z,5.35
2019-04-11T04:10:21.181Z,6.00
2019-04-11T04:12:51.455Z,5.53
2019-04-11T04:15:48.883Z,6.12
2019-04-11T04:17:57.357Z,6.58
2019-04-11T04:20:28.962Z,6.00
2019-04-11T04:23:00.726Z,6.65
2019-04-11T04:25:32.480Z,5.90
2019-04-11T04:28:02.892Z,6.78
2019-04-11T04:30:31.557Z,7.53
2019-04-11T04:33:00.633Z,6.50
2019-04-11T04:35:31.525Z,6.75
2019-04-11T04:38:00.069Z,5.45
2019-04-11T04:40:44.777Z,5.45
2019-04-11T04:43:02.852Z,6.17
2019-04-11T04:45:49.594Z,6.30
2019-04-11T04:48:05.575Z,6.87
2019-04-11T04:50:31.429Z,6.47
2019-04-11T04:53:01.058Z,6.87
2019-04-11T04:55:30.512Z,6.58
2019-04-11T04:57:59.737Z,7.40
2019-04-11T05:00:30.282Z,6.67
2019-04-11T05:03:01.942Z,6.22
2019-04-11T05:05:31.017Z,7.45
2019-04-11T05:08:00.672Z,8.15
2019-04-11T05:10:30.685Z,8.10
2019-04-11T05:12:59.756Z,6.78
2019-04-11T05:15:28.388Z,7.50
2019-04-11T05:17:57.678Z,7.58
2019-04-11T05:20:26.365Z,7.45
2019-04-11T05:22:55.888Z,7.37
2019-04-11T05:25:24.570Z,7.28
2019-04-11T05:27:54.005Z,9.08
2019-04-11T05:30:23.103Z,7.58
2019-04-11T05:32:51.903Z,6.87
2019-04-11T05:35:20.723Z,7.60
2019-04-11T05:37:49.480Z,6.97
2019-04-11T05:40:17.948Z,6.97
2019-04-11T05:42:50.978Z,7.23
2019-04-11T05:45:21.000Z,6.78
2019-04-11T05:47:50.899Z,6.75
2019-04-11T05:50:26.385Z,6.45
2019-04-11T05:52:54.965Z,7.23
2019-04-11T05:55:23.875Z,7.70
2019-04-11T05:57:52.472Z,8.00
2019-04-11T06:00:28.489Z,8.83
2019-04-11T06:02:59.696Z,6.80
2019-04-11T06:05:33.817Z,7.80
2019-04-11T06:08:05.577Z,8.33
2019-04-11T06:10:37.065Z,6.90
2019-04-11T06:13:13.755Z,7.20
2019-04-11T06:15:53.544Z,6.93
2019-04-11T06:18:30.539Z,7.70
2019-04-11T06:20:55.699Z,7.37
2019-04-11T06:23:35.126Z,5.87
2019-04-11T06:26:09.209Z,6.97
2019-04-11T06:28:39.301Z,6.70
2019-04-11T06:31:18.661Z,6.67
2019-04-11T06:33:49.098Z,5.50
2019-04-11T06:36:35.405Z,6.73
2019-04-11T06:39:19.088Z,6.43
2019-04-11T06:41:49.239Z,6.77
2019-04-11T06:44:21.806Z,5.03
2019-04-11T06:47:08.223Z,6.50
2019-04-11T06:49:47.100Z,6.27
2019-04-11T06:52:16.836Z,8.10
2019-04-11T06:55:05.127Z,5.77
2019-04-11T06:57:34.599Z,6.50
2019-04-11T07:00:05.145Z,6.53
2019-04-11T07:02:35.393Z,5.80
2019-04-11T07:05:09.094Z,6.57
2019-04-11T07:07:39.299Z,5.27
2019-04-11T07:10:08.030Z,4.80
2019-04-11T07:12:41.011Z,6.57
2019-04-11T07:15:18.850Z,5.43
2019-04-11T07:18:07.505Z,5.80
2019-04-11T07:20:52.338Z,5.37
2019-04-11T07:23:38.820Z,4.70
2019-04-11T07:26:14.818Z,5.37
2019-04-11T07:28:44.968Z,4.77
2019-04-11T07:31:33.905Z,5.90
2019-04-11T07:34:19.475Z,6.33
2019-04-11T07:36:53.500Z,5.90
2019-04-11T07:39:26.792Z,6.67
2019-04-11T07:42:00.326Z,7.00
2019-04-11T07:44:34.107Z,8.27
2019-04-11T07:47:13.698Z,6.67
2019-04-11T07:49:42.879Z,6.43
2019-04-11T07:52:20.259Z,7.20
2019-04-11T07:54:49.050Z,6.53
2019-04-11T07:57:19.365Z,6.07
2019-04-11T07:59:49.536Z,5.67
2019-04-11T08:02:24.393Z,5.03
2019-04-11T08:05:04.931Z,4.37
2019-04-11T08:07:44.810Z,4.30
2019-04-11T08:10:23.734Z,3.90
2019-04-11T08:12:54.082Z,4.00
2019-04-11T08:15:39.897Z,3.20
2019-04-11T08:18:10.454Z,4.33
2019-04-11T08:20:57.432Z,4.43
2019-04-11T08:23:26.408Z,4.20
2019-04-11T08:26:11.675Z,4.10
2019-04-11T08:28:40.799Z,3.73
2019-04-11T08:31:23.059Z,3.83
2019-04-11T08:33:55.101Z,3.23
2019-04-11T08:36:42.079Z,3.20
2019-04-11T08:39:13.003Z,3.07
2019-04-11T08:41:50.205Z,3.03
2019-04-11T08:44:19.492Z,3.50
2019-04-11T08:46:49.616Z,3.70
2019-04-11T08:49:19.742Z,3.20
2019-04-11T08:51:48.236Z,2.60
2019-04-11T08:54:21.600Z,2.23
2019-04-11T08:56:50.079Z,2.80
2019-04-11T08:59:37.770Z,3.27
2019-04-11T09:02:06.833Z,2.60
2019-04-11T09:05:03.117Z,2.30
2019-04-11T09:07:31.792Z,2.70
2019-04-11T09:10:18.162Z,2.70
2019-04-11T09:12:48.932Z,2.30
2019-04-11T09:15:24.933Z,1.93
2019-04-11T09:18:03.472Z,1.93
2019-04-11T09:20:33.836Z,2.47
2019-04-11T09:23:03.501Z,2.10
2019-04-11T09:25:52.211Z,1.57
2019-04-11T09:28:21.776Z,1.93
2019-04-11T09:31:08.925Z,1.90
2019-04-11T09:33:55.490Z,1.50
2019-04-11T09:36:36.789Z,1.20
2019-04-11T09:39:15.164Z,1.70
2019-04-11T09:41:48.912Z,1.70
2019-04-11T09:44:20.306Z,1.40
2019-04-11T09:47:07.554Z,1.77
2019-04-11T09:49:37.726Z,1.70
2019-04-11T09:52:08.834Z,1.60
2019-04-11T09:54:42.031Z,1.50
2019-04-11T09:57:18.532Z,2.20
2019-04-11T09:59:49.732Z,1.70
2019-04-11T10:02:25.632Z,1.43
2019-04-11T10:04:56.859Z,1.17
2019-04-11T10:07:28.145Z,1.07
2019-04-11T10:10:04.796Z,1.10
2019-04-11T10:12:42.426Z,1.00
2019-04-11T10:15:13.436Z,0.80
2019-04-11T10:17:43.764Z,1.10
2019-04-11T10:20:16.560Z,1.20
2019-04-11T10:22:49.481Z,1.43
2019-04-11T10:25:21.127Z,1.37
2019-04-11T10:27:57.272Z,1.70
2019-04-11T10:30:44.149Z,1.20
2019-04-11T10:33:15.010Z,1.77
2019-04-11T10:35:57.125Z,1.50
2019-04-11T10:38:26.604Z,2.27
2019-04-11T10:41:00.760Z,2.10
2019-04-11T10:43:32.101Z,1.47
2019-04-11T10:46:02.838Z,1.77
2019-04-11T10:48:39.291Z,2.30
2019-04-11T10:51:11.057Z,2.33
2019-04-11T10:53:41.501Z,1.70
2019-04-11T10:56:20.279Z,1.80
2019-04-11T10:58:51.258Z,2.20
2019-04-11T11:01:37.963Z,1.97
2019-04-11T11:04:17.885Z,1.40
2019-04-11T11:06:48.398Z,1.77
2019-04-11T11:09:37.228Z,1.60
2019-04-11T11:12:14.056Z,2.17
2019-04-11T11:14:59.485Z,1.57
2019-04-11T11:18:12.653Z,2.03
2019-04-11T11:20:27.084Z,1.70
2019-04-11T11:22:52.362Z,1.93
2019-04-11T11:25:39.361Z,2.13
2019-04-11T11:28:08.033Z,2.20
2019-04-11T11:30:38.196Z,1.87
2019-04-11T11:33:08.303Z,2.50
2019-04-11T11:35:50.179Z,1.97
2019-04-11T11:38:24.109Z,2.00
2019-04-11T11:41:10.583Z,1.53
2019-04-11T11:43:39.162Z,2.20
2019-04-11T11:46:12.239Z,2.30
2019-04-11T11:48:46.276Z,1.97
2019-04-11T11:51:31.148Z,1.80
2019-04-11T11:54:05.169Z,2.00
2019-04-11T11:56:35.334Z,2.20
2019-04-11T11:59:09.115Z,1.47
2019-04-11T12:01:45.164Z,1.87
2019-04-11T12:04:16.964Z,2.00
2019-04-11T12:06:48.145Z,1.60
2019-04-11T12:09:34.211Z,1.80
2019-04-11T12:12:11.413Z,1.80
2019-04-11T12:14:59.283Z,2.10
2019-04-11T12:17:34.785Z,2.00
2019-04-11T12:20:09.746Z,2.80
2019-04-11T12:22:36.781Z,1.50
2019-04-11T12:25:09.826Z,2.30
2019-04-11T12:27:43.624Z,2.03
2019-04-11T12:30:21.634Z,2.53
2019-04-11T12:32:51.310Z,3.30
2019-04-11T12:35:38.032Z,3.13
2019-04-11T12:38:11.685Z,2.13
2019-04-11T12:40:54.150Z,2.30
2019-04-11T12:43:24.630Z,2.30
2019-04-11T12:46:10.944Z,2.87
2019-04-11T12:48:40.697Z,2.60
2019-04-11T12:51:27.549Z,2.70
2019-04-11T12:53:57.681Z,2.10
2019-04-11T12:56:27.789Z,2.77
2019-04-11T12:58:56.759Z,2.30
2019-04-11T13:01:26.858Z,2.50
2019-04-11T13:04:05.919Z,2.50
2019-04-11T13:06:36.050Z,1.80
2019-04-11T13:09:11.477Z,1.90
2019-04-11T13:11:41.584Z,2.80
2019-04-11T13:14:14.364Z,2.10
2019-04-11T13:16:44.516Z,1.93
2019-04-11T13:19:17.048Z,2.20
2019-04-11T13:21:49.892Z,2.30
2019-04-11T13:24:28.477Z,2.33
2019-04-11T13:27:14.002Z,2.30
2019-04-11T13:29:44.115Z,2.13
2019-04-11T13:32:30.621Z,2.60
2019-04-11T13:35:12.664Z,2.60
2019-04-11T13:38:00.999Z,2.70
2019-04-11T13:40:36.891Z,2.70
2019-04-11T13:43:23.137Z,2.77
2019-04-11T13:46:10.101Z,2.30
2019-04-11T13:48:56.441Z,1.83
2019-04-11T13:51:29.479Z,2.23
2019-04-11T13:54:15.892Z,2.30
2019-04-11T13:57:02.726Z,2.13
2019-04-11T13:59:35.326Z,2.43
2019-04-11T14:02:17.965Z,2.40
2019-04-11T14:04:48.109Z,2.23
2019-04-11T14:07:18.443Z,2.20
2019-04-11T14:09:51.438Z,2.07
2019-04-11T14:12:20.038Z,3.03
2019-04-11T14:14:51.949Z,2.00
2019-04-11T14:17:22.240Z,3.23
2019-04-11T14:20:11.579Z,2.57
2019-04-11T14:22:47.947Z,3.00
2019-04-11T14:25:23.706Z,3.37
2019-04-11T14:27:56.761Z,2.90
2019-04-11T14:30:32.437Z,3.53
2019-04-11T14:33:01.085Z,3.80
2019-04-11T14:35:47.071Z,3.47
2019-04-11T14:38:23.176Z,3.47
2019-04-11T14:41:01.626Z,3.20
2019-04-11T14:43:28.088Z,3.13
2019-04-11T14:46:04.626Z,3.00
2019-04-11T14:48:42.966Z,3.90
2019-04-11T14:51:15.847Z,3.70
2019-04-11T14:53:51.562Z,3.23
2019-04-11T14:56:22.190Z,3.50
2019-04-11T14:59:09.299Z,3.40
2019-04-11T15:01:37.793Z,4.00
2019-04-11T15:04:16.789Z,3.60
2019-04-11T15:06:49.387Z,3.80
2019-04-11T15:09:35.768Z,3.57
2019-04-11T15:12:08.366Z,4.63
2019-04-11T15:14:49.511Z,3.97
2019-04-11T15:17:19.090Z,4.03
2019-04-11T15:20:07.083Z,4.20
2019-04-11T15:22:42.983Z,4.03
2019-04-11T15:25:13.158Z,3.97
2019-04-11T15:27:55.254Z,3.77
2019-04-11T15:30:43.422Z,3.43
2019-04-11T15:33:16.253Z,2.40
2019-04-11T15:35:46.367Z,3.20
2019-04-11T15:38:31.754Z,4.13
2019-04-11T15:41:01.887Z,3.03
2019-04-11T15:43:50.357Z,2.60
2019-04-11T15:46:20.463Z,2.90
2019-04-11T15:49:07.068Z,3.00
2019-04-11T15:51:36.600Z,2.93
2019-04-11T15:54:16.341Z,2.83
2019-04-11T15:56:58.869Z,2.80
2019-04-11T15:59:37.880Z,2.80
2019-04-11T16:02:24.259Z,2.47
2019-04-11T16:05:02.047Z,3.40
2019-04-11T16:07:32.130Z,3.03
2019-04-11T16:10:02.167Z,3.17
2019-04-11T16:12:32.326Z,4.07
2019-04-11T16:15:18.611Z,3.43
2019-04-11T16:17:54.741Z,3.20
2019-04-11T16:20:24.072Z,3.17
2019-04-11T16:22:55.313Z,2.80
2019-04-11T16:25:28.734Z,3.30
2019-04-11T16:28:11.666Z,3.20
2019-04-11T16:30:43.062Z,3.23
2019-04-11T16:33:13.182Z,3.43
2019-04-11T16:35:52.088Z,3.63
2019-04-11T16:38:27.873Z,3.77
2019-04-11T16:41:14.578Z,3.30
2019-04-11T16:43:44.696Z,3.90
2019-04-11T16:46:24.628Z,3.53
2019-04-11T16:48:51.040Z,2.83
2019-04-11T16:51:30.348Z,3.17
2019-04-11T16:53:49.972Z,4.17
2019-04-11T16:56:18.418Z,3.33
2019-04-11T16:58:50.193Z,3.43
2019-04-11T17:01:17.127Z,3.70
2019-04-11T17:03:45.590Z,3.40
2019-04-11T17:06:15.689Z,3.80
2019-04-11T17:08:45.829Z,4.23
2019-04-11T17:11:18.632Z,3.67
2019-04-11T17:13:50.936Z,3.47
2019-04-11T17:16:19.546Z,3.50
2019-04-11T17:18:48.016Z,3.80
2019-04-11T17:21:16.501Z,3.70
2019-04-11T17:23:47.147Z,3.43
2019-04-11T17:26:15.142Z,3.43
2019-04-11T17:28:43.632Z,3.90
2019-04-11T17:31:12.186Z,3.67
2019-04-11T17:33:40.641Z,4.60
2019-04-11T17:36:09.188Z,4.13
2019-04-11T17:38:37.834Z,4.20
2019-04-11T17:41:06.306Z,3.70
2019-04-11T17:43:34.802Z,4.90
2019-04-11T17:46:03.301Z,4.10
2019-04-11T17:48:31.761Z,3.33
2019-04-11T17:51:00.277Z,4.40
2019-04-11T17:53:28.765Z,4.50
2019-04-11T17:55:57.680Z,3.93
2019-04-11T17:58:27.242Z,4.00
2019-04-11T18:01:05.243Z,4.40
2019-04-11T18:03:32.886Z,4.33
2019-04-11T18:06:01.460Z,4.20
2019-04-11T18:08:29.948Z,4.10
2019-04-11T18:10:58.475Z,4.40
2019-04-11T18:13:30.696Z,4.53
2019-04-11T18:16:00.751Z,4.83
2019-04-11T18:18:27.363Z,4.13
2019-04-11T18:20:55.893Z,3.37
2019-04-11T18:23:24.455Z,3.70
2019-04-11T18:25:53.030Z,3.40
2019-04-11T18:28:21.859Z,4.20
2019-04-11T18:30:54.060Z,3.70
2019-04-11T18:33:23.026Z,4.30
2019-04-11T18:35:51.503Z,3.60
2019-04-11T18:38:19.966Z,3.70
2019-04-11T18:40:48.502Z,2.87
2019-04-11T18:43:16.980Z,3.77
2019-04-11T18:45:45.451Z,4.10
2019-04-11T18:48:14.003Z,4.30
2019-04-11T18:50:42.543Z,3.20
2019-04-11T18:53:11.032Z,4.10
2019-04-11T18:55:39.544Z,4.07
2019-04-11T18:58:08.357Z,3.00
2019-04-11T19:00:38.341Z,3.50
2019-04-11T19:03:07.998Z,3.37
2019-04-11T19:05:37.337Z,2.80
2019-04-11T19:08:05.890Z,3.97
2019-04-11T19:10:34.477Z,3.50
2019-04-11T19:13:02.978Z,3.73
2019-04-11T19:15:31.455Z,3.87
2019-04-11T19:18:06.152Z,4.00
2019-04-11T19:20:30.181Z,4.20
2019-04-11T19:22:58.634Z,3.90
2019-04-11T19:25:27.159Z,3.87
2019-04-11T19:27:57.270Z,3.40
2019-04-11T19:30:26.374Z,3.67
2019-04-11T19:32:55.504Z,3.37
2019-04-11T19:35:23.989Z,4.20
2019-04-11T19:37:52.519Z,3.53
2019-04-11T19:40:21.033Z,4.20
2019-04-11T19:42:49.856Z,4.73
2019-04-11T19:45:19.542Z,4.20
2019-04-11T19:47:51.520Z,4.40
2019-04-11T19:50:19.106Z,4.90
2019-04-11T19:52:47.553Z,4.80
2019-04-11T19:55:17.815Z,5.17
2019-04-11T19:57:46.278Z,6.33
2019-04-11T20:00:15.045Z,4.83
2019-04-11T20:02:43.584Z,6.20
2019-04-11T20:05:12.345Z,4.30
2019-04-11T20:07:41.017Z,4.10
2019-04-11T20:10:09.528Z,4.90
2019-04-11T20:12:38.003Z,5.30
2019-04-11T20:15:08.678Z,3.90
2019-04-11T20:17:44.398Z,4.40
2019-04-11T20:20:07.864Z,4.20
2019-04-11T20:22:39.218Z,3.67
2019-04-11T20:25:07.259Z,3.70
2019-04-11T20:27:35.714Z,5.03
2019-04-11T20:30:05.904Z,4.03
2019-04-11T20:32:34.405Z,4.40
2019-04-11T20:35:02.867Z,4.00
2019-04-11T20:37:39.156Z,3.50
2019-04-11T20:40:01.530Z,3.20
2019-04-11T20:42:29.979Z,3.50
2019-04-11T20:44:59.175Z,3.10
2019-04-11T20:47:29.567Z,3.40
2019-04-11T20:49:58.051Z,2.80
2019-04-11T20:52:26.489Z,3.13
2019-04-11T20:54:54.991Z,2.63
2019-04-11T20:57:26.018Z,3.53
2019-04-11T20:59:53.635Z,2.90
2019-04-11T21:02:22.423Z,2.70
2019-04-11T21:04:50.923Z,2.70
2019-04-11T21:07:19.411Z,2.80
2019-04-11T21:09:47.903Z,3.50
2019-04-11T21:12:18.261Z,2.97
2019-04-11T21:14:46.710Z,3.43
2019-04-11T21:17:15.212Z,3.40
2019-04-11T21:19:43.667Z,2.93
2019-04-11T21:22:12.143Z,3.50
2019-04-11T21:24:40.629Z,3.20
2019-04-11T21:27:09.083Z,3.43
2019-04-11T21:29:37.703Z,3.13
2019-04-11T21:32:06.213Z,3.63
2019-04-11T21:34:34.684Z,3.50
2019-04-11T21:37:03.151Z,4.30
2019-04-11T21:39:31.677Z,4.27
2019-04-11T21:42:00.107Z,4.70
2019-04-11T21:44:28.557Z,4.37
2019-04-11T21:46:57.038Z,4.87
2019-04-11T21:49:25.495Z,4.60
2019-04-11T21:51:53.967Z,4.40
2019-04-11T21:54:22.453Z,4.03
2019-04-11T21:56:50.919Z,4.33
2019-04-11T21:59:20.375Z,5.03
2019-04-11T22:01:53.858Z,5.37
2019-04-11T22:04:20.876Z,4.57
2019-04-11T22:06:49.405Z,4.87
2019-04-11T22:09:17.999Z,4.90
2019-04-11T22:11:46.452Z,5.03
2019-04-11T22:14:14.944Z,4.70
2019-04-11T22:16:45.057Z,4.90
2019-04-11T22:19:14.284Z,4.23
2019-04-11T22:21:45.286Z,4.47
2019-04-11T22:24:13.640Z,4.80
2019-04-11T22:26:42.131Z,3.70
2019-04-11T22:29:10.569Z,4.30
2019-04-11T22:31:39.140Z,4.00
2019-04-11T22:34:18.193Z,3.40
2019-04-11T22:36:46.695Z,3.10
2019-04-11T22:39:15.157Z,3.60
2019-04-11T22:41:43.613Z,3.67
2019-04-11T22:44:12.108Z,2.50
2019-04-11T22:46:40.586Z,2.70
2019-04-11T22:49:09.504Z,2.90
2019-04-11T22:51:42.686Z,2.77
2019-04-11T22:54:08.200Z,3.57
2019-04-11T22:56:36.662Z,3.27
2019-04-11T22:59:05.219Z,3.07
2019-04-11T23:01:34.160Z,3.30
2019-04-11T23:04:02.691Z,3.10
2019-04-11T23:06:32.117Z,3.37
2019-04-11T23:09:00.579Z,3.40
2019-04-11T23:11:29.029Z,3.17
2019-04-11T23:13:57.539Z,2.93
2019-04-11T23:16:25.990Z,3.30
2019-04-11T23:18:54.461Z,3.27
2019-04-11T23:21:22.979Z,3.63
2019-04-11T23:23:51.440Z,3.33
2019-04-11T23:26:19.902Z,3.50
2019-04-11T23:28:48.386Z,3.10
2019-04-11T23:31:19.756Z,3.40
2019-04-11T23:33:51.792Z,3.47
2019-04-11T23:36:18.777Z,3.00
2019-04-11T23:38:48.102Z,3.50
2019-04-11T23:41:19.594Z,4.10
2019-04-11T23:43:49.741Z,3.00
2019-04-11T23:46:19.011Z,3.77
2019-04-11T23:48:47.138Z,3.40
2019-04-11T23:51:15.634Z,3.50
2019-04-11T23:53:44.110Z,3.53
2019-04-11T23:56:12.563Z,4.07
2019-04-11T23:58:41.069Z,3.90
